createdAt,value
2022-11-16T05:30:56.446Z,0.00
2022-11-16T05:31:56.434Z,0.00
2022-11-16T05:32:56.415Z,0.00
2022-11-16T05:33:56.456Z,0.00
2022-11-16T05:34:56.479Z,0.00
2022-11-16T05:35:56.398Z,0.00
2022-11-16T05:36:56.364Z,0.00
2022-11-16T05:37:56.355Z,0.00
2022-11-16T05:38:56.593Z,0.00
2022-11-16T05:39:56.325Z,0.00
2022-11-16T05:40:56.324Z,0.00
2022-11-16T05:41:56.314Z,0.00
2022-11-16T05:42:56.294Z,0.00
2022-11-16T05:44:03.655Z,0.00
2022-11-16T05:44:56.350Z,0.00
2022-11-16T05:45:56.266Z,0.00
2022-11-16T05:46:56.241Z,0.00
2022-11-16T05:47:56.238Z,0.00
2022-11-16T05:48:56.205Z,0.00
2022-11-16T05:49:56.204Z,0.00
2022-11-16T05:50:56.193Z,0.00
2022-11-16T05:51:56.197Z,0.00
2022-11-16T05:52:56.153Z,0.00
2022-11-16T05:53:56.144Z,0.00
2022-11-16T05:54:56.137Z,0.00
2022-11-16T05:55:56.167Z,0.00
2022-11-16T05:56:56.093Z,0.00
2022-11-16T05:57:56.106Z,0.00
2022-11-16T05:58:56.083Z,0.00
2022-11-16T05:59:56.073Z,0.00
2022-11-16T06:00:56.073Z,0.00
2022-11-16T06:01:56.052Z,0.00
2022-11-16T06:02:56.105Z,0.00
2022-11-16T06:03:56.099Z,0.00
2022-11-16T06:04:56.016Z,0.00
2022-11-16T06:05:55.993Z,0.00
2022-11-16T06:06:56.037Z,0.00
2022-11-16T06:07:55.954Z,0.00
2022-11-16T06:08:55.944Z,0.00
2022-11-16T06:09:55.945Z,0.00
2022-11-16T06:10:55.934Z,0.00
2022-11-16T06:11:55.916Z,0.00
2022-11-16T06:12:55.882Z,0.00
2022-11-16T06:13:55.883Z,0.00
2022-11-16T06:14:55.870Z,0.00
2022-11-16T06:15:55.861Z,0.00
2022-11-16T06:16:55.850Z,0.00
2022-11-16T06:17:55.843Z,0.00
2022-11-16T06:18:55.811Z,0.00
2022-11-16T06:19:55.803Z,0.00
2022-11-16T06:20:55.791Z,0.00
2022-11-16T06:21:55.771Z,0.00
2022-11-16T06:22:55.759Z,0.00
2022-11-16T06:23:55.763Z,0.00
2022-11-16T06:24:55.740Z,0.00
2022-11-16T06:25:55.739Z,0.00
2022-11-16T06:26:55.708Z,0.00
2022-11-16T06:27:55.690Z,0.00
2022-11-16T06:28:55.671Z,4.00
2022-11-16T06:29:55.659Z,4.00
2022-11-16T06:30:55.652Z,0.00
2022-11-16T06:31:55.669Z,4.00
2022-11-16T06:32:55.634Z,4.00
2022-11-16T06:33:55.620Z,4.00
2022-11-16T06:34:55.621Z,4.00
2022-11-16T06:35:55.588Z,4.00
2022-11-16T06:36:55.580Z,8.00
2022-11-16T06:37:55.573Z,8.00
2022-11-16T06:38:55.540Z,12.00
2022-11-16T06:39:55.538Z,16.00
2022-11-16T06:40:55.520Z,16.00
2022-11-16T06:41:55.528Z,20.00
2022-11-16T06:42:55.487Z,20.00
2022-11-16T06:43:55.482Z,20.00
2022-11-16T06:44:55.467Z,24.00
2022-11-16T06:45:55.467Z,24.00
2022-11-16T06:46:55.450Z,24.00
2022-11-16T06:47:55.427Z,24.00
2022-11-16T06:48:55.409Z,24.00
2022-11-16T06:49:55.398Z,28.00
2022-11-16T06:50:55.387Z,32.00
2022-11-16T06:51:55.389Z,32.00
2022-11-16T06:52:55.377Z,32.00
2022-11-16T06:53:55.509Z,36.00
2022-11-16T06:54:55.331Z,32.00
2022-11-16T06:55:55.340Z,28.00
2022-11-16T06:56:55.317Z,24.00
2022-11-16T06:57:55.326Z,32.00
2022-11-16T06:58:55.268Z,56.00
2022-11-16T06:59:55.270Z,68.00
2022-11-16T07:00:55.258Z,60.00
2022-11-16T07:01:55.319Z,52.00
2022-11-16T07:02:55.216Z,52.00
2022-11-16T07:03:55.207Z,56.00
2022-11-16T07:04:59.239Z,60.00
2022-11-16T07:05:56.297Z,60.00
2022-11-16T07:06:55.217Z,56.00
2022-11-16T07:07:55.155Z,76.00
2022-11-16T07:08:55.136Z,84.00
2022-11-16T07:09:55.145Z,76.00
2022-11-16T07:10:56.454Z,80.00
2022-11-16T07:11:55.128Z,88.00
2022-11-16T07:12:55.085Z,84.00
2022-11-16T07:13:55.075Z,88.00
2022-11-16T07:14:55.066Z,96.00
2022-11-16T07:15:55.055Z,92.00
2022-11-16T07:16:59.794Z,108.00
2022-11-16T07:17:56.027Z,120.00
2022-11-16T07:18:55.006Z,128.00
2022-11-16T07:19:54.995Z,144.00
2022-11-16T07:20:54.992Z,140.00
2022-11-16T07:21:54.986Z,140.00
2022-11-16T07:22:54.954Z,128.00
2022-11-16T07:23:54.944Z,100.00
2022-11-16T07:24:54.934Z,104.00
2022-11-16T07:25:54.923Z,124.00
2022-11-16T07:26:54.922Z,116.00
2022-11-16T07:27:54.893Z,112.00
2022-11-16T07:28:54.875Z,108.00
2022-11-16T07:29:54.865Z,124.00
2022-11-16T07:30:54.851Z,148.00
2022-11-16T07:31:54.852Z,140.00
2022-11-16T07:32:54.825Z,192.00
2022-11-16T07:33:54.814Z,252.00
2022-11-16T07:34:54.793Z,252.00
2022-11-16T07:35:54.784Z,276.00
2022-11-16T07:36:54.772Z,320.00
2022-11-16T07:37:54.762Z,332.00
2022-11-16T07:38:54.756Z,400.00
2022-11-16T07:39:54.733Z,476.00
2022-11-16T07:40:54.734Z,500.00
2022-11-16T07:41:54.741Z,524.00
2022-11-16T07:42:54.702Z,640.00
2022-11-16T07:43:54.681Z,772.00
2022-11-16T07:44:54.663Z,832.00
2022-11-16T07:45:55.736Z,900.00
2022-11-16T07:46:54.652Z,936.00
2022-11-16T07:47:54.629Z,924.00
2022-11-16T07:48:54.620Z,840.00
2022-11-16T07:49:54.595Z,768.00
2022-11-16T07:50:54.588Z,848.00
2022-11-16T07:51:54.587Z,840.00
2022-11-16T07:52:54.559Z,840.00
2022-11-16T07:53:54.583Z,820.00
2022-11-16T07:54:54.541Z,756.00
2022-11-16T07:55:54.521Z,692.00
2022-11-16T07:56:54.521Z,640.00
2022-11-16T07:57:54.513Z,584.00
2022-11-16T07:58:54.502Z,536.00
2022-11-16T07:59:54.470Z,528.00
2022-11-16T08:00:54.464Z,524.00
2022-11-16T08:01:54.486Z,552.00
2022-11-16T08:02:54.440Z,580.00
2022-11-16T08:03:54.413Z,596.00
2022-11-16T08:04:54.402Z,620.00
2022-11-16T08:05:54.391Z,608.00
2022-11-16T08:06:54.436Z,560.00
2022-11-16T08:07:54.452Z,568.00
2022-11-16T08:08:58.307Z,612.00
2022-11-16T08:09:54.388Z,704.00
2022-11-16T08:10:54.319Z,748.00
2022-11-16T08:11:54.322Z,764.00
2022-11-16T08:12:54.332Z,788.00
2022-11-16T08:13:54.270Z,776.00
2022-11-16T08:14:54.370Z,740.00
2022-11-16T08:15:54.239Z,652.00
2022-11-16T08:16:54.249Z,540.00
2022-11-16T08:17:54.219Z,444.00
2022-11-16T08:18:54.209Z,368.00
2022-11-16T08:19:54.207Z,400.00
2022-11-16T08:20:54.179Z,508.00
2022-11-16T08:21:54.178Z,612.00
2022-11-16T08:22:54.157Z,668.00
2022-11-16T08:23:58.426Z,768.00
2022-11-16T08:24:54.130Z,860.00
2022-11-16T08:25:54.108Z,916.00
2022-11-16T08:26:54.107Z,1052.00
2022-11-16T08:27:54.088Z,1004.00
2022-11-16T08:28:54.125Z,780.00
2022-11-16T08:29:54.058Z,696.00
2022-11-16T08:30:54.163Z,672.00
2022-11-16T08:31:54.036Z,592.00
2022-11-16T08:32:54.017Z,552.00
2022-11-16T08:33:54.021Z,540.00
2022-11-16T08:34:53.997Z,476.00
2022-11-16T08:35:53.985Z,520.00
2022-11-16T08:36:53.997Z,612.00
2022-11-16T08:37:53.950Z,672.00
2022-11-16T08:38:53.936Z,800.00
2022-11-16T08:39:53.939Z,1196.00
2022-11-16T08:40:53.925Z,1256.00
2022-11-16T08:41:53.914Z,1164.00
2022-11-16T08:42:53.921Z,1092.00
2022-11-16T08:43:53.876Z,1096.00
2022-11-16T08:44:53.856Z,1128.00
2022-11-16T08:45:53.845Z,1092.00
2022-11-16T08:46:53.840Z,1056.00
2022-11-16T08:48:03.573Z,1180.00
2022-11-16T08:48:54.796Z,1308.00
2022-11-16T08:49:53.794Z,1460.00
2022-11-16T08:51:16.294Z,1572.00
2022-11-16T08:51:54.795Z,1668.00
2022-11-16T08:52:53.754Z,2052.00
2022-11-16T08:53:53.744Z,2316.00
2022-11-16T08:54:53.736Z,2552.00
2022-11-16T08:55:53.747Z,2480.00
2022-11-16T08:56:53.702Z,2612.00
2022-11-16T08:57:53.726Z,2896.00
2022-11-16T08:58:58.207Z,3120.00
2022-11-16T08:59:54.668Z,3440.00
2022-11-16T09:00:53.649Z,3624.00
2022-11-16T09:01:53.693Z,3664.00
2022-11-16T09:02:53.655Z,3628.00
2022-11-16T09:03:53.614Z,3524.00
2022-11-16T09:04:53.595Z,3296.00
2022-11-16T09:05:53.592Z,3232.00
2022-11-16T09:06:53.601Z,2996.00
2022-11-16T09:07:53.575Z,2960.00
2022-11-16T09:08:53.545Z,3060.00
2022-11-16T09:09:53.532Z,3176.00
2022-11-16T09:10:53.514Z,3320.00
2022-11-16T09:11:53.519Z,3404.00
2022-11-16T09:12:53.503Z,3540.00
2022-11-16T09:13:53.492Z,3472.00
2022-11-16T09:14:53.465Z,3312.00
2022-11-16T09:15:53.463Z,3028.00
2022-11-16T09:16:53.442Z,2960.00
2022-11-16T09:17:53.454Z,3108.00
2022-11-16T09:18:53.412Z,3380.00
2022-11-16T09:19:53.402Z,3396.00
2022-11-16T09:20:53.383Z,3368.00
2022-11-16T09:21:53.382Z,3244.00
2022-11-16T09:22:53.383Z,3036.00
2022-11-16T09:23:53.373Z,2836.00
2022-11-16T09:24:53.347Z,2556.00
2022-11-16T09:25:53.332Z,2076.00
2022-11-16T09:26:53.307Z,1544.00
2022-11-16T09:27:53.312Z,1448.00
2022-11-16T09:28:53.292Z,1776.00
2022-11-16T09:29:53.272Z,1808.00
2022-11-16T09:30:53.261Z,2044.00
2022-11-16T09:31:53.251Z,1968.00
2022-11-16T09:32:53.241Z,2028.00
2022-11-16T09:33:53.232Z,2212.00
2022-11-16T09:34:53.217Z,2648.00
2022-11-16T09:35:53.194Z,3208.00
2022-11-16T09:36:53.180Z,3532.00
2022-11-16T09:37:53.181Z,3704.00
2022-11-16T09:39:54.143Z,4400.00
2022-11-16T09:40:53.131Z,4796.00
2022-11-16T09:41:53.122Z,6572.00
2022-11-16T09:42:53.110Z,10300.00
2022-11-16T09:43:53.092Z,22080.00
2022-11-16T09:44:53.080Z,13216.00
2022-11-16T09:45:53.060Z,9108.00
2022-11-16T09:46:53.050Z,6648.00
2022-11-16T09:47:53.060Z,23552.00
2022-11-16T09:48:53.022Z,44256.00
2022-11-16T09:49:55.719Z,8392.00
2022-11-16T09:50:53.992Z,8304.00
2022-11-16T09:51:53.024Z,10248.00
2022-11-16T09:52:52.989Z,44640.00
2022-11-16T09:53:52.961Z,11136.00
2022-11-16T09:54:52.951Z,16096.00
2022-11-16T09:55:52.940Z,44768.00
2022-11-16T09:56:52.919Z,10476.00
2022-11-16T09:57:52.911Z,49216.00
2022-11-16T09:58:52.900Z,48736.00
2022-11-16T09:59:52.889Z,47808.00
2022-11-16T10:00:52.922Z,43200.00
2022-11-16T10:01:52.859Z,43488.00
2022-11-16T10:02:52.841Z,8764.00
2022-11-16T10:03:52.850Z,32992.00
2022-11-16T10:04:57.988Z,7080.00
2022-11-16T10:05:53.810Z,38624.00
2022-11-16T10:06:52.838Z,9028.00
2022-11-16T10:07:52.788Z,7908.00
2022-11-16T10:08:52.782Z,8764.00
2022-11-16T10:09:52.753Z,23008.00
2022-11-16T10:10:52.740Z,14976.00
2022-11-16T10:11:52.743Z,13892.00
2022-11-16T10:12:52.719Z,11880.00
2022-11-16T10:13:52.710Z,18752.00
2022-11-16T10:14:52.690Z,15488.00
2022-11-16T10:15:52.681Z,18880.00
2022-11-16T10:16:52.663Z,24352.00
2022-11-16T10:17:52.660Z,30624.00
2022-11-16T10:18:52.662Z,9152.00
2022-11-16T10:19:52.633Z,41952.00
2022-11-16T10:20:52.625Z,42112.00
2022-11-16T10:21:52.599Z,44128.00
2022-11-16T10:22:52.583Z,15232.00
2022-11-16T10:23:52.580Z,21056.00
2022-11-16T10:24:52.573Z,48128.00
2022-11-16T10:25:52.550Z,38144.00
2022-11-16T10:26:52.530Z,41920.00
2022-11-16T10:27:52.528Z,52320.00
2022-11-16T10:28:52.510Z,62624.00
2022-11-16T10:29:52.518Z,64064.00
2022-11-16T10:30:52.499Z,48896.00
2022-11-16T10:31:52.469Z,61120.00
2022-11-16T10:32:52.450Z,27616.00
2022-11-16T10:33:52.449Z,18144.00
2022-11-16T10:34:52.430Z,56128.00
2022-11-16T10:35:52.443Z,34400.00
2022-11-16T10:36:52.433Z,60416.00
2022-11-16T10:37:52.395Z,42528.00
2022-11-16T10:38:52.383Z,17824.00
2022-11-16T10:39:52.369Z,17248.00
2022-11-16T10:40:52.360Z,11400.00
2022-11-16T10:41:52.350Z,9036.00
2022-11-16T10:42:52.328Z,11224.00
2022-11-16T10:43:52.329Z,8128.00
2022-11-16T10:44:52.422Z,10760.00
2022-11-16T10:45:52.290Z,9940.00
2022-11-16T10:46:52.270Z,10452.00
2022-11-16T10:47:52.269Z,11712.00
2022-11-16T10:48:52.262Z,9356.00
2022-11-16T10:49:52.231Z,8912.00
2022-11-16T10:50:52.221Z,8168.00
2022-11-16T10:51:52.219Z,7628.00
2022-11-16T10:52:52.191Z,8188.00
2022-11-16T10:53:52.221Z,10320.00
2022-11-16T10:54:52.170Z,12356.00
2022-11-16T10:55:52.162Z,7176.00
2022-11-16T10:56:52.150Z,6780.00
2022-11-16T10:57:52.143Z,8464.00
2022-11-16T10:58:52.123Z,9844.00
2022-11-16T10:59:52.108Z,13780.00
2022-11-16T11:00:52.171Z,52960.00
2022-11-16T11:01:52.799Z,41504.00
2022-11-16T11:02:52.060Z,10888.00
2022-11-16T11:03:52.063Z,24032.00
2022-11-16T11:04:52.031Z,12416.00
2022-11-16T11:05:52.030Z,58272.00
2022-11-16T11:06:52.072Z,15904.00
2022-11-16T11:07:56.765Z,75328.00
2022-11-16T11:08:53.008Z,74240.00
2022-11-16T11:09:51.979Z,73888.00
2022-11-16T11:10:51.959Z,72064.00
2022-11-16T11:11:51.950Z,69504.00
2022-11-16T11:12:51.932Z,67264.00
2022-11-16T11:13:51.941Z,68416.00
2022-11-16T11:14:51.909Z,70656.00
2022-11-16T11:15:51.900Z,73696.00
2022-11-16T11:16:51.882Z,8928.00
2022-11-16T11:17:51.870Z,7408.00
2022-11-16T11:18:51.871Z,74560.00
2022-11-16T11:19:51.840Z,72736.00
2022-11-16T11:20:51.828Z,70400.00
2022-11-16T11:21:51.821Z,69504.00
2022-11-16T11:22:51.800Z,68928.00
2022-11-16T11:23:51.812Z,70144.00
2022-11-16T11:24:51.772Z,70912.00
2022-11-16T11:25:51.774Z,71776.00
2022-11-16T11:26:51.753Z,69728.00
2022-11-16T11:27:51.741Z,10520.00
2022-11-16T11:28:51.744Z,18880.00
2022-11-16T11:29:51.721Z,65184.00
2022-11-16T11:30:51.702Z,68384.00
2022-11-16T11:31:51.695Z,8988.00
2022-11-16T11:32:51.693Z,6296.00
2022-11-16T11:33:51.671Z,6044.00
2022-11-16T11:34:51.651Z,6164.00
2022-11-16T11:35:51.642Z,7068.00
2022-11-16T11:36:51.634Z,6008.00
2022-11-16T11:37:51.641Z,6404.00
2022-11-16T11:38:51.605Z,6160.00
2022-11-16T11:39:51.602Z,5908.00
2022-11-16T11:40:51.573Z,6008.00
2022-11-16T11:41:51.562Z,6896.00
2022-11-16T11:42:51.564Z,7708.00
2022-11-16T11:43:51.541Z,9268.00
